createdAt,value
2022-10-04T00:02:00.211Z,84.05
2022-10-04T00:04:35.941Z,84.38
2022-10-04T00:07:15.125Z,84.43
2022-10-04T00:09:48.589Z,84.90
2022-10-04T00:12:28.261Z,84.93
2022-10-04T00:15:06.280Z,84.93
2022-10-04T00:17:37.001Z,85.24
2022-10-04T00:20:23.804Z,85.51
2022-10-04T00:23:23.447Z,85.12
2022-10-04T00:26:11.207Z,85.97
2022-10-04T00:28:38.186Z,85.08
2022-10-04T00:31:10.878Z,85.51
2022-10-04T00:33:45.192Z,85.32
2022-10-04T00:36:25.853Z,85.34
2022-10-04T00:39:05.742Z,85.38
2022-10-04T00:41:48.458Z,85.38
2022-10-04T00:44:15.643Z,84.95
2022-10-04T00:46:45.562Z,84.83
2022-10-04T00:49:13.840Z,84.63
2022-10-04T00:51:50.934Z,85.04
2022-10-04T00:54:36.475Z,84.81
2022-10-04T00:57:17.835Z,84.79
2022-10-04T00:59:48.750Z,84.76
2022-10-04T01:02:24.417Z,85.43
2022-10-04T01:04:53.673Z,85.39
2022-10-04T01:07:28.914Z,85.23
2022-10-04T01:10:00.496Z,85.72
2022-10-04T01:12:44.601Z,86.11
2022-10-04T01:15:36.703Z,85.93
2022-10-04T01:18:14.727Z,85.72
2022-10-04T01:20:54.531Z,85.90
2022-10-04T01:23:44.357Z,86.60
2022-10-04T01:26:45.122Z,86.34
2022-10-04T01:29:27.237Z,86.87
2022-10-04T01:31:57.471Z,87.21
2022-10-04T01:34:30.272Z,87.63
2022-10-04T01:37:00.346Z,87.53
2022-10-04T01:39:28.838Z,88.40
2022-10-04T01:42:05.280Z,88.64
2022-10-04T01:45:05.974Z,89.22
2022-10-04T01:47:39.031Z,89.57
2022-10-04T01:50:15.964Z,89.87
2022-10-04T01:52:51.002Z,90.36
2022-10-04T01:55:24.889Z,90.73
2022-10-04T01:58:23.685Z,90.99
2022-10-04T02:00:58.012Z,91.22
2022-10-04T02:03:34.292Z,91.52
2022-10-04T02:06:06.342Z,91.26
2022-10-04T02:08:38.381Z,91.73
2022-10-04T02:11:07.336Z,91.65
2022-10-04T02:13:39.945Z,91.76
2022-10-04T02:16:13.184Z,92.05
2022-10-04T02:18:43.762Z,91.99
2022-10-04T02:21:12.757Z,92.22
2022-10-04T02:23:42.165Z,92.47
2022-10-04T02:26:11.354Z,92.31
2022-10-04T02:28:40.785Z,93.02
2022-10-04T02:31:28.392Z,92.95
2022-10-04T02:33:59.674Z,93.44
2022-10-04T02:36:30.212Z,93.05
2022-10-04T02:39:16.105Z,93.20
2022-10-04T02:41:48.898Z,93.10
2022-10-04T02:44:21.802Z,93.23
2022-10-04T02:47:13.111Z,93.43
2022-10-04T02:49:47.945Z,93.71
2022-10-04T02:52:32.024Z,93.56
2022-10-04T02:55:09.704Z,93.60
2022-10-04T02:57:42.323Z,93.65
2022-10-04T03:00:22.740Z,93.59
2022-10-04T03:03:11.183Z,93.70
2022-10-04T03:05:39.957Z,93.62
2022-10-04T03:08:07.983Z,94.16
2022-10-04T03:10:36.415Z,94.09
2022-10-04T03:13:04.395Z,94.07
2022-10-04T03:15:32.766Z,94.41
2022-10-04T03:18:01.439Z,94.58
2022-10-04T03:20:29.066Z,94.46
2022-10-04T03:22:57.314Z,94.37
2022-10-04T03:25:30.118Z,94.53
2022-10-04T03:28:02.898Z,94.28
2022-10-04T03:30:32.746Z,94.14
2022-10-04T03:33:00.346Z,94.09
2022-10-04T03:35:33.284Z,94.31
2022-10-04T03:38:03.619Z,94.28
2022-10-04T03:40:34.235Z,94.04
2022-10-04T03:43:04.461Z,94.17
2022-10-04T03:45:35.373Z,94.13
2022-10-04T03:48:10.125Z,94.05
2022-10-04T03:50:52.466Z,94.17
2022-10-04T03:53:30.780Z,94.45
2022-10-04T03:56:04.046Z,94.01
2022-10-04T03:58:31.828Z,93.86
2022-10-04T04:01:24.280Z,93.46
2022-10-04T04:04:01.263Z,93.30
2022-10-04T04:06:50.697Z,92.74
2022-10-04T04:09:26.957Z,92.75
2022-10-04T04:11:57.868Z,92.24
2022-10-04T04:14:27.249Z,92.00
2022-10-04T04:17:15.572Z,91.98
2022-10-04T04:19:43.345Z,91.45
2022-10-04T04:22:16.893Z,91.76
2022-10-04T04:24:46.688Z,91.63
2022-10-04T04:27:17.996Z,92.01
2022-10-04T04:29:52.972Z,92.36
2022-10-04T04:32:34.180Z,92.11
2022-10-04T04:35:13.113Z,92.82
2022-10-04T04:37:40.350Z,92.86
2022-10-04T04:40:22.827Z,93.19
2022-10-04T04:42:51.895Z,93.56
2022-10-04T04:45:24.156Z,93.69
2022-10-04T04:47:54.488Z,93.77
2022-10-04T04:50:24.591Z,93.66
2022-10-04T04:53:00.916Z,93.40
2022-10-04T04:55:50.017Z,92.55
2022-10-04T04:58:35.548Z,90.90
2022-10-04T05:01:09.226Z,89.54
2022-10-04T05:03:36.381Z,87.92
2022-10-04T05:06:05.100Z,87.87
2022-10-04T05:08:40.419Z,87.23
2022-10-04T05:11:08.522Z,86.44
2022-10-04T05:13:57.139Z,85.64
2022-10-04T05:16:36.333Z,85.25
2022-10-04T05:19:28.804Z,84.59
2022-10-04T05:21:58.258Z,84.40
2022-10-04T05:24:31.088Z,85.26
2022-10-04T05:27:02.787Z,85.04
2022-10-04T05:29:36.260Z,83.24
2022-10-04T05:32:08.869Z,84.12
2022-10-04T05:34:42.551Z,85.03
2022-10-04T05:37:20.724Z,84.57
2022-10-04T05:40:03.988Z,85.54
2022-10-04T05:42:45.336Z,84.36
2022-10-04T05:45:20.300Z,81.90
2022-10-04T05:47:53.773Z,81.19
2022-10-04T05:50:33.521Z,80.62
2022-10-04T05:53:36.067Z,78.68
2022-10-04T05:56:26.298Z,80.87
2022-10-04T05:59:03.168Z,80.22
2022-10-04T06:01:55.735Z,80.36
2022-10-04T06:04:22.955Z,79.15
2022-10-04T06:07:16.579Z,78.71
2022-10-04T06:09:53.333Z,79.12
2022-10-04T06:12:47.151Z,79.78
2022-10-04T06:15:44.232Z,80.31
2022-10-04T06:19:06.181Z,79.60
2022-10-04T06:22:22.783Z,77.68
2022-10-04T06:25:05.033Z,78.50
2022-10-04T06:27:49.011Z,78.99
2022-10-04T06:30:19.010Z,77.58
2022-10-04T06:33:07.274Z,77.99
2022-10-04T06:35:58.733Z,76.48
2022-10-04T06:38:47.886Z,77.25
2022-10-04T06:41:28.452Z,77.04
2022-10-04T06:44:22.496Z,75.02
2022-10-04T06:47:16.592Z,74.50
2022-10-04T06:50:01.511Z,74.29
2022-10-04T06:52:43.790Z,73.29
2022-10-04T06:55:38.020Z,70.67
2022-10-04T06:58:19.848Z,68.56
2022-10-04T07:01:00.089Z,68.64
2022-10-04T07:03:56.306Z,68.86
2022-10-04T07:06:47.731Z,67.16
2022-10-04T07:09:25.172Z,68.92
2022-10-04T07:12:08.664Z,67.87
2022-10-04T07:14:44.310Z,67.49
2022-10-04T07:17:20.450Z,66.74
2022-10-04T07:19:53.165Z,67.05
2022-10-04T07:22:29.500Z,66.66
2022-10-04T07:25:20.082Z,65.15
2022-10-04T07:28:19.183Z,62.58
2022-10-04T07:30:52.923Z,62.51
2022-10-04T07:33:25.464Z,63.06
2022-10-04T07:36:01.082Z,62.56
2022-10-04T07:38:31.788Z,59.79
2022-10-04T07:41:07.659Z,57.05
2022-10-04T07:43:47.294Z,58.57
2022-10-04T07:46:37.777Z,57.38
2022-10-04T07:49:04.825Z,57.72
2022-10-04T07:51:45.203Z,58.45
2022-10-04T07:54:29.098Z,57.35
2022-10-04T07:57:04.502Z,53.83
2022-10-04T08:00:23.859Z,54.41
2022-10-04T08:02:50.894Z,54.99
2022-10-04T08:05:23.491Z,54.52
2022-10-04T08:08:18.346Z,53.76
2022-10-04T08:11:00.642Z,53.62
2022-10-04T08:14:00.267Z,53.55
2022-10-04T08:17:17.066Z,53.34
2022-10-04T08:19:44.127Z,54.45
2022-10-04T08:22:35.892Z,55.21
2022-10-04T08:25:22.359Z,55.25
2022-10-04T08:28:20.755Z,55.21
2022-10-04T08:31:21.594Z,57.66
2022-10-04T08:33:48.604Z,58.48
2022-10-04T08:36:57.319Z,58.04
2022-10-04T08:39:44.790Z,58.82
2022-10-04T08:42:54.057Z,58.36
2022-10-04T08:45:21.472Z,57.89
2022-10-04T08:48:07.152Z,57.70
2022-10-04T08:50:40.390Z,57.96
2022-10-04T08:53:14.659Z,58.24
2022-10-04T08:56:17.696Z,58.53
2022-10-04T08:59:36.465Z,57.57
2022-10-04T09:02:26.656Z,57.42
2022-10-04T09:05:09.444Z,56.85
2022-10-04T09:08:01.571Z,56.86
2022-10-04T09:10:51.316Z,56.92
2022-10-04T09:13:50.358Z,55.68
2022-10-04T09:16:23.467Z,54.71
2022-10-04T09:19:13.115Z,53.19
2022-10-04T09:21:59.489Z,52.07
2022-10-04T09:24:44.941Z,50.27
2022-10-04T09:27:54.724Z,50.11
2022-10-04T09:30:25.307Z,49.92
2022-10-04T09:33:11.070Z,50.99
2022-10-04T09:36:16.669Z,52.42
2022-10-04T09:39:29.886Z,53.48
2022-10-04T09:42:04.170Z,53.33
2022-10-04T09:44:57.057Z,53.68
2022-10-04T09:47:32.514Z,55.09
2022-10-04T09:50:24.371Z,55.39
2022-10-04T09:53:18.296Z,55.38
2022-10-04T09:56:06.728Z,55.99
2022-10-04T09:59:02.611Z,55.84
2022-10-04T10:01:41.032Z,55.26
2022-10-04T10:04:42.505Z,56.02
2022-10-04T10:07:21.360Z,55.55
2022-10-04T10:10:31.961Z,53.87
2022-10-04T10:13:36.930Z,53.03
2022-10-04T10:16:31.371Z,52.41
2022-10-04T10:19:26.151Z,53.51
2022-10-04T10:21:58.210Z,53.19
2022-10-04T10:24:48.230Z,54.79
2022-10-04T10:27:46.942Z,55.39
2022-10-04T10:30:22.930Z,56.56
2022-10-04T10:33:04.500Z,56.96
2022-10-04T10:35:50.052Z,57.84
2022-10-04T10:38:45.155Z,62.73
2022-10-04T10:41:39.316Z,74.72
2022-10-04T10:44:31.664Z,84.84
2022-10-04T10:47:26.423Z,92.56
2022-10-04T10:50:21.611Z,96.02
2022-10-04T10:53:12.836Z,96.29
2022-10-04T10:55:59.181Z,98.48
2022-10-04T10:58:49.629Z,98.51
2022-10-04T11:01:40.455Z,97.30
2022-10-04T11:04:35.843Z,97.64
2022-10-04T11:07:09.408Z,97.17
2022-10-04T11:10:04.423Z,98.23
2022-10-04T11:12:31.673Z,98.40
2022-10-04T11:15:38.628Z,98.44
2022-10-04T11:18:17.546Z,98.38
2022-10-04T11:21:28.318Z,99.05
2022-10-04T11:24:26.438Z,97.91
2022-10-04T11:27:00.416Z,96.22
2022-10-04T11:29:31.120Z,95.46
2022-10-04T11:32:01.328Z,94.22
2022-10-04T11:34:31.599Z,97.15
2022-10-04T11:37:02.844Z,96.26
2022-10-04T11:39:49.128Z,96.30
2022-10-04T11:42:53.916Z,96.35
2022-10-04T11:45:34.205Z,96.04
2022-10-04T11:48:20.313Z,96.50
2022-10-04T11:51:35.253Z,96.63
2022-10-04T11:54:51.815Z,95.31
2022-10-04T11:57:59.740Z,95.20
2022-10-04T12:00:49.887Z,94.67
2022-10-04T12:03:44.583Z,94.36
2022-10-04T12:06:23.667Z,93.57
2022-10-04T12:09:10.863Z,92.00
2022-10-04T12:12:38.850Z,91.88
2022-10-04T12:15:24.575Z,90.51
2022-10-04T12:18:13.079Z,90.58
2022-10-04T12:21:33.910Z,90.23
2022-10-04T12:24:07.104Z,88.97
2022-10-04T12:26:51.757Z,88.42
2022-10-04T12:30:04.514Z,88.08
2022-10-04T12:32:44.025Z,88.36
2022-10-04T12:35:14.542Z,88.79
2022-10-04T12:38:16.773Z,88.43
2022-10-04T12:41:13.162Z,89.02
2022-10-04T12:44:20.908Z,88.31
2022-10-04T12:47:20.566Z,87.80
2022-10-04T12:50:01.017Z,87.39
2022-10-04T12:52:50.178Z,85.21
2022-10-04T12:55:20.332Z,85.64
2022-10-04T12:57:54.199Z,84.90
2022-10-04T13:00:26.156Z,84.78
2022-10-04T13:03:26.767Z,82.44
2022-10-04T13:06:25.345Z,81.11
2022-10-04T13:09:15.520Z,82.24
2022-10-04T13:12:13.289Z,82.60
2022-10-04T13:14:41.875Z,81.84
2022-10-04T13:17:36.066Z,81.27
2022-10-04T13:20:34.339Z,81.94
2022-10-04T13:23:21.772Z,80.21
2022-10-04T13:26:19.129Z,81.54
2022-10-04T13:29:07.231Z,80.67
2022-10-04T13:31:50.770Z,79.68
2022-10-04T13:34:52.157Z,80.02
2022-10-04T13:37:31.421Z,79.44
2022-10-04T13:40:22.908Z,79.43
2022-10-04T13:43:15.013Z,79.72
2022-10-04T13:45:53.985Z,78.72
2022-10-04T13:48:32.995Z,79.46
2022-10-04T13:51:23.529Z,80.62
2022-10-04T13:54:12.108Z,79.81
2022-10-04T13:56:42.484Z,79.47
2022-10-04T13:59:36.156Z,80.23
2022-10-04T14:02:03.958Z,79.98
2022-10-04T14:04:43.711Z,80.04
2022-10-04T14:07:38.021Z,80.65
2022-10-04T14:10:22.710Z,80.82
2022-10-04T14:12:50.478Z,80.67
2022-10-04T14:15:42.325Z,80.93
2022-10-04T14:18:10.222Z,81.02
2022-10-04T14:20:43.657Z,81.10
2022-10-04T14:24:09.410Z,81.03
2022-10-04T14:27:12.822Z,80.83
2022-10-04T14:29:40.950Z,81.01
2022-10-04T14:32:20.545Z,81.00
2022-10-04T14:35:22.664Z,81.51
2022-10-04T14:38:06.756Z,81.19
2022-10-04T14:40:56.391Z,80.95
2022-10-04T14:43:58.967Z,80.46
2022-10-04T14:47:03.040Z,80.62
2022-10-04T14:49:31.747Z,80.81
2022-10-04T14:52:20.752Z,80.36
2022-10-04T14:55:04.164Z,80.65
2022-10-04T14:57:52.138Z,81.45
2022-10-04T15:00:22.670Z,81.12
2022-10-04T15:03:29.008Z,81.18
2022-10-04T15:06:26.083Z,80.76
2022-10-04T15:09:18.535Z,81.05
2022-10-04T15:12:29.380Z,80.56
2022-10-04T15:14:59.185Z,80.94
2022-10-04T15:17:37.229Z,81.01
2022-10-04T15:20:28.301Z,81.03
2022-10-04T15:23:09.717Z,82.42
2022-10-04T15:25:43.446Z,81.35
2022-10-04T15:28:30.346Z,82.21
2022-10-04T15:31:22.633Z,81.36
2022-10-04T15:34:29.191Z,82.47
2022-10-04T15:37:40.189Z,82.94
2022-10-04T15:40:29.909Z,83.81
2022-10-04T15:43:19.097Z,83.65
2022-10-04T15:46:18.529Z,83.97
2022-10-04T15:49:07.027Z,84.58
2022-10-04T15:51:50.324Z,84.64
2022-10-04T15:55:02.248Z,85.52
2022-10-04T15:57:42.316Z,84.65
2022-10-04T16:00:20.802Z,85.55
2022-10-04T16:03:13.000Z,85.22
2022-10-04T16:06:06.341Z,85.34
2022-10-04T16:09:06.626Z,85.36
2022-10-04T16:11:54.167Z,85.19
2022-10-04T16:14:40.814Z,84.73
2022-10-04T16:17:47.802Z,86.26
2022-10-04T16:20:35.030Z,85.52
2022-10-04T16:23:29.711Z,85.77
2022-10-04T16:26:03.560Z,85.25
2022-10-04T16:28:40.378Z,85.11
2022-10-04T16:31:25.362Z,86.23
2022-10-04T16:34:14.916Z,86.38
2022-10-04T16:37:12.619Z,85.46
2022-10-04T16:40:22.804Z,86.13
2022-10-04T16:42:53.720Z,86.64
2022-10-04T16:45:41.115Z,85.13
2022-10-04T16:48:47.658Z,85.80
2022-10-04T16:51:18.749Z,83.66
2022-10-04T16:54:12.482Z,82.94
2022-10-04T16:56:54.717Z,84.05
2022-10-04T16:59:37.584Z,83.52
2022-10-04T17:02:14.957Z,83.20
2022-10-04T17:04:56.279Z,83.10
2022-10-04T17:07:42.845Z,82.09
2022-10-04T17:10:37.619Z,82.72
2022-10-04T17:13:56.849Z,81.42
2022-10-04T17:16:40.061Z,80.70
2022-10-04T17:19:33.658Z,81.66
2022-10-04T17:22:53.381Z,80.75
2022-10-04T17:25:39.074Z,82.46
2022-10-04T17:28:35.241Z,81.59
2022-10-04T17:31:12.005Z,81.44
2022-10-04T17:34:30.912Z,80.62
2022-10-04T17:37:24.179Z,80.47
2022-10-04T17:40:04.058Z,79.92
2022-10-04T17:43:17.486Z,79.26
2022-10-04T17:46:07.731Z,80.01
2022-10-04T17:49:07.080Z,82.73
2022-10-04T17:52:03.025Z,86.08
2022-10-04T17:55:00.977Z,87.71
2022-10-04T17:57:39.535Z,89.43
2022-10-04T18:00:11.088Z,90.34
2022-10-04T18:02:38.876Z,90.94
2022-10-04T18:05:19.952Z,91.44
2022-10-04T18:08:10.816Z,91.39
2022-10-04T18:10:52.843Z,93.25
2022-10-04T18:13:31.391Z,92.47
2022-10-04T18:16:28.756Z,91.25
2022-10-04T18:18:58.461Z,91.63
2022-10-04T18:21:34.541Z,90.74
2022-10-04T18:24:22.456Z,90.82
2022-10-04T18:27:01.793Z,90.43
2022-10-04T18:29:40.902Z,90.13
2022-10-04T18:32:33.739Z,89.35
2022-10-04T18:35:31.847Z,89.59
2022-10-04T18:38:05.800Z,89.48
2022-10-04T18:40:37.009Z,89.58
2022-10-04T18:43:27.000Z,90.02
2022-10-04T18:46:15.362Z,90.08
2022-10-04T18:48:55.882Z,90.09
2022-10-04T18:51:40.680Z,89.66
2022-10-04T18:54:32.637Z,90.03
2022-10-04T18:57:19.844Z,89.94
2022-10-04T19:00:28.964Z,89.72
2022-10-04T19:03:15.375Z,89.32
2022-10-04T19:06:16.740Z,89.01
2022-10-04T19:09:05.100Z,89.10
2022-10-04T19:11:44.183Z,88.24
2022-10-04T19:15:04.417Z,87.25
2022-10-04T19:17:58.310Z,87.04
2022-10-04T19:20:49.152Z,86.83
2022-10-04T19:23:29.665Z,87.53
2022-10-04T19:29:08.216Z,87.65
2022-10-04T19:31:58.213Z,87.84
2022-10-04T19:34:45.186Z,87.18
2022-10-04T19:37:19.364Z,87.14
2022-10-04T19:40:05.162Z,86.66
2022-10-04T19:43:12.195Z,86.57
2022-10-04T19:46:05.757Z,86.23
2022-10-04T19:49:00.326Z,86.31
2022-10-04T19:51:39.243Z,86.94
2022-10-04T19:54:16.125Z,86.73
2022-10-04T19:56:50.056Z,86.49
2022-10-04T19:59:22.775Z,86.34
2022-10-04T20:01:55.085Z,86.64
2022-10-04T20:04:42.432Z,86.28
2022-10-04T20:07:22.370Z,86.51
2022-10-04T20:10:20.482Z,86.97
2022-10-04T20:13:11.660Z,86.58
2022-10-04T20:15:40.026Z,85.71
2022-10-04T20:18:33.020Z,86.57
2022-10-04T20:21:04.417Z,86.39
2022-10-04T20:23:44.607Z,86.64
2022-10-04T20:27:01.907Z,86.68
2022-10-04T20:29:39.141Z,87.18
2022-10-04T20:32:34.987Z,86.93
2022-10-04T20:35:06.986Z,86.60
2022-10-04T20:38:07.598Z,86.82
2022-10-04T20:40:41.586Z,87.58
2022-10-04T20:43:24.702Z,87.30
2022-10-04T20:45:58.301Z,88.20
2022-10-04T20:48:27.947Z,88.45
2022-10-04T20:50:56.535Z,88.33
2022-10-04T20:53:27.959Z,88.40
2022-10-04T20:56:22.048Z,88.62
2022-10-04T20:58:59.292Z,88.92
2022-10-04T21:01:40.021Z,88.81
2022-10-04T21:04:32.899Z,88.87
2022-10-04T21:07:06.741Z,88.74
2022-10-04T21:09:37.433Z,88.30
2022-10-04T21:12:06.623Z,89.15
2022-10-04T21:14:40.385Z,88.87
2022-10-04T21:17:29.829Z,88.75
2022-10-04T21:19:57.854Z,88.71
2022-10-04T21:22:29.410Z,88.33
2022-10-04T21:24:59.709Z,88.42
2022-10-04T21:27:28.529Z,87.81
2022-10-04T21:29:56.755Z,87.66
2022-10-04T21:32:26.290Z,88.41
2022-10-04T21:34:54.842Z,87.47
2022-10-04T21:37:23.063Z,87.88
2022-10-04T21:39:50.301Z,87.26
2022-10-04T21:42:18.104Z,87.71
2022-10-04T21:44:45.962Z,87.33
2022-10-04T21:47:13.396Z,87.36
2022-10-04T21:49:41.521Z,87.25
2022-10-04T21:52:09.282Z,87.56
2022-10-04T21:54:36.521Z,87.54
2022-10-04T21:57:03.768Z,87.58
2022-10-04T21:59:31.639Z,87.37
2022-10-04T22:01:59.284Z,88.16
2022-10-04T22:04:26.418Z,87.20
2022-10-04T22:06:53.483Z,87.27
2022-10-04T22:09:20.591Z,87.93
2022-10-04T22:11:47.676Z,87.94
2022-10-04T22:14:14.737Z,88.17
2022-10-04T22:16:41.916Z,88.06
2022-10-04T22:19:09.154Z,88.27
2022-10-04T22:21:37.451Z,88.16
2022-10-04T22:24:13.335Z,87.96
2022-10-04T22:26:41.550Z,88.42
2022-10-04T22:29:14.435Z,88.84
2022-10-04T22:31:44.126Z,88.79
2022-10-04T22:34:20.858Z,88.93
2022-10-04T22:36:50.442Z,89.13
2022-10-04T22:39:20.378Z,89.18
2022-10-04T22:42:00.982Z,89.33
2022-10-04T22:44:36.346Z,89.56
2022-10-04T22:47:06.860Z,90.01
2022-10-04T22:49:37.970Z,89.69
2022-10-04T22:52:21.175Z,89.91
2022-10-04T22:54:51.246Z,89.83
2022-10-04T22:57:19.990Z,90.35
2022-10-04T22:59:50.199Z,90.22
2022-10-04T23:02:29.563Z,90.22
2022-10-04T23:05:11.204Z,90.48
2022-10-04T23:07:39.241Z,90.06
2022-10-04T23:10:07.669Z,90.23
2022-10-04T23:12:35.341Z,90.23
2022-10-04T23:15:03.179Z,90.44
2022-10-04T23:17:36.482Z,90.52
2022-10-04T23:20:14.982Z,90.99
2022-10-04T23:22:47.151Z,90.50
2022-10-04T23:25:25.023Z,90.58
2022-10-04T23:27:52.198Z,90.25
2022-10-04T23:30:22.791Z,90.42
2022-10-04T23:32:53.408Z,89.95
2022-10-04T23:35:23.964Z,90.71
2022-10-04T23:37:52.951Z,90.20
2022-10-04T23:40:24.190Z,90.93
2022-10-04T23:42:57.001Z,90.75
2022-10-04T23:45:25.973Z,91.13
2022-10-04T23:47:58.779Z,90.69
2022-10-04T23:50:30.004Z,90.90
2022-10-04T23:53:02.883Z,91.27
2022-10-04T23:55:41.509Z,91.25
2022-10-04T23:58:13.920Z,90.70
